Time;durP1;ratioP1;P1;durP2;ratioP2;P2;SDS_P1;SDS_P2;PMS_P1;PMS_P2;Temp;Humidity;BMP_temperature;BMP_pressure;BME280_temperature;BME280_humidity;BME280_pressure;Samples;Min_cycle;Max_cycle;Signal;HPM_P1;HPM_P2
2024/01/04 00:01:39;;;;;;;0.68;0.52;;;11.50;65.50;;;;;;5054416;28;20064;-66
2024/01/04 00:04:04;;;;;;;2.17;0.80;;;11.60;65.20;;;;;;5053734;28;20032;-67
2024/01/04 00:06:30;;;;;;;3.80;0.60;;;11.70;64.80;;;;;;5067640;28;20028;-67
2024/01/04 00:08:56;;;;;;;0.88;0.63;;;11.70;64.40;;;;;;5073551;28;20422;-66
2024/01/04 00:11:40;;;;;;;1.45;0.88;;;11.80;64.00;;;;;;5073399;28;20025;-65
2024/01/04 00:14:07;;;;;;;1.10;0.80;;;11.80;63.60;;;;;;5073510;28;20090;-66
2024/01/04 00:16:33;;;;;;;1.90;0.68;;;11.90;63.30;;;;;;5073821;28;20024;-66
2024/01/04 00:18:59;;;;;;;1.65;0.70;;;12.00;63.10;;;;;;5073977;28;20169;-66
2024/01/04 00:21:25;;;;;;;1.02;0.70;;;12.00;62.90;;;;;;5073568;28;20036;-66
2024/01/04 00:23:50;;;;;;;1.35;0.68;;;12.00;62.90;;;;;;5073813;28;20127;-66
2024/01/04 00:26:16;;;;;;;0.75;0.57;;;12.00;63.00;;;;;;5073449;28;20094;-66
2024/01/04 00:28:41;;;;;;;0.77;0.68;;;12.00;63.20;;;;;;5073626;28;20032;-66
2024/01/04 00:31:07;;;;;;;3.03;0.80;;;12.00;63.00;;;;;;5073303;28;20064;-66
2024/01/04 00:33:33;;;;;;;0.93;0.60;;;12.00;63.10;;;;;;5074066;28;20039;-67
2024/01/04 00:35:59;;;;;;;1.02;0.65;;;11.90;62.90;;;;;;5074044;28;20025;-67
2024/01/04 00:38:24;;;;;;;0.47;0.47;;;11.90;62.90;;;;;;5069428;28;20029;-67
2024/01/04 00:40:50;;;;;;;1.25;0.70;;;11.90;63.00;;;;;;5059221;28;20357;-67
2024/01/04 00:43:16;;;;;;;0.50;0.50;;;11.90;63.20;;;;;;5062931;28;20479;-66
2024/01/04 00:45:41;;;;;;;0.50;0.50;;;11.90;63.20;;;;;;5059500;28;20021;-67
2024/01/04 00:48:07;;;;;;;2.17;0.70;;;11.90;63.00;;;;;;5058671;28;20188;-68
2024/01/04 00:50:32;;;;;;;0.98;0.50;;;11.90;63.00;;;;;;5071766;28;20028;-67
2024/01/04 00:52:58;;;;;;;0.77;0.60;;;11.90;63.20;;;;;;5072919;28;20099;-67
2024/01/04 00:55:24;;;;;;;0.80;0.40;;;11.90;63.40;;;;;;5072785;28;20051;-67
2024/01/04 00:57:49;;;;;;;0.77;0.55;;;11.90;63.60;;;;;;5073487;28;20029;-66
2024/01/04 01:00:16;;;;;;;1.63;0.50;;;11.90;63.60;;;;;;5072855;28;20045;-67
2024/01/04 01:02:41;;;;;;;1.40;0.50;;;11.90;63.70;;;;;;5072999;28;20142;-67
2024/01/04 01:05:07;;;;;;;2.15;0.40;;;11.80;63.90;;;;;;5072683;28;20496;-67
2024/01/04 01:07:33;;;;;;;0.63;0.40;;;11.80;64.10;;;;;;5072662;28;20115;-66
2024/01/04 01:09:58;;;;;;;0.63;0.40;;;11.80;64.30;;;;;;5072925;28;20033;-66
2024/01/04 01:12:24;;;;;;;1.27;0.50;;;11.90;64.50;;;;;;5072449;28;20031;-67
2024/01/04 01:14:50;;;;;;;0.38;0.30;;;11.90;64.50;;;;;;5072513;28;20469;-67
2024/01/04 01:17:15;;;;;;;1.67;0.43;;;12.00;64.80;;;;;;5072374;28;20032;-67
2024/01/04 01:19:41;;;;;;;1.65;0.52;;;12.00;64.80;;;;;;5072403;28;20024;-67
2024/01/04 01:22:06;;;;;;;0.40;0.40;;;12.10;65.20;;;;;;5072933;28;20025;-66
2024/01/04 01:24:32;;;;;;;0.40;0.30;;;12.10;65.30;;;;;;5072930;28;20035;-66
2024/01/04 01:26:58;;;;;;;2.25;0.57;;;12.10;65.40;;;;;;5072612;28;20021;-66
2024/01/04 01:29:23;;;;;;;3.30;0.40;;;12.10;65.50;;;;;;5072498;28;20031;-66
2024/01/04 01:31:49;;;;;;;1.45;0.40;;;12.10;65.40;;;;;;5072894;28;20070;-66
2024/01/04 01:34:15;;;;;;;0.32;0.30;;;12.10;65.30;;;;;;5072579;28;20035;-67
2024/01/04 01:36:41;;;;;;;0.50;0.20;;;12.10;65.60;;;;;;5072532;28;20054;-66
2024/01/04 01:39:06;;;;;;;0.73;0.40;;;12.10;65.50;;;;;;5072423;28;20067;-66
2024/01/04 01:41:32;;;;;;;1.98;0.52;;;12.10;65.30;;;;;;5071987;28;20052;-66
2024/01/04 01:43:58;;;;;;;0.30;0.30;;;12.10;65.40;;;;;;5072284;28;20032;-66
2024/01/04 01:46:23;;;;;;;0.40;0.40;;;12.10;65.50;;;;;;5070499;28;20373;-67
2024/01/04 01:48:49;;;;;;;3.92;0.40;;;12.10;65.80;;;;;;5072522;28;20016;-67
2024/01/04 01:51:15;;;;;;;2.63;0.40;;;12.00;65.80;;;;;;5071819;28;20056;-67
2024/01/04 01:53:41;;;;;;;0.57;0.45;;;12.00;66.00;;;;;;5072070;28;20028;-67
2024/01/04 01:56:07;;;;;;;2.70;0.50;;;12.00;65.80;;;;;;5072095;28;20023;-67
2024/01/04 01:58:32;;;;;;;0.30;0.30;;;12.00;65.90;;;;;;5071399;28;20047;-67
2024/01/04 02:00:58;;;;;;;0.82;0.20;;;12.00;65.90;;;;;;5072621;28;20080;-66
2024/01/04 02:03:24;;;;;;;1.02;0.55;;;12.00;66.00;;;;;;5071561;28;20467;-66
2024/01/04 02:05:49;;;;;;;0.68;0.40;;;12.00;66.10;;;;;;5071969;28;20031;-66
2024/01/04 02:08:15;;;;;;;0.63;0.30;;;12.00;66.20;;;;;;5071613;28;20032;-66
2024/01/04 02:10:41;;;;;;;1.65;0.43;;;11.90;66.20;;;;;;5071927;28;20373;-66
2024/01/04 02:13:09;;;;;;;1.00;0.40;;;12.00;66.50;;;;;;5067265;28;20033;-66
2024/01/04 02:15:34;;;;;;;1.50;0.40;;;11.90;66.50;;;;;;5071386;28;20442;-67
2024/01/04 02:18:00;;;;;;;1.25;0.30;;;11.90;66.70;;;;;;5071730;28;20025;-67
2024/01/04 02:20:25;;;;;;;0.98;0.50;;;11.90;66.40;;;;;;5071213;28;20025;-67
2024/01/04 02:22:52;;;;;;;0.40;0.28;;;11.90;66.70;;;;;;5071834;28;20029;-66
2024/01/04 02:25:18;;;;;;;1.08;0.40;;;11.90;66.70;;;;;;5071418;28;20465;-66
2024/01/04 02:27:44;;;;;;;0.90;0.40;;;11.90;66.60;;;;;;5071762;28;20147;-66
2024/01/04 02:30:13;;;;;;;2.70;0.40;;;11.90;66.60;;;;;;5074159;28;20052;-66
2024/01/04 02:32:38;;;;;;;0.47;0.20;;;11.90;66.60;;;;;;5078378;28;20029;-66
2024/01/04 02:35:05;;;;;;;0.55;0.28;;;11.90;66.80;;;;;;5061453;28;20029;-66
2024/01/04 02:37:31;;;;;;;1.15;0.30;;;11.90;66.80;;;;;;5057466;28;20021;-66
2024/01/04 02:39:56;;;;;;;0.73;0.30;;;11.90;66.90;;;;;;5058170;28;20029;-66
2024/01/04 02:42:22;;;;;;;0.70;0.20;;;11.90;67.00;;;;;;5057322;28;20179;-65
2024/01/04 02:44:47;;;;;;;0.20;0.20;;;11.90;66.90;;;;;;5058371;28;20036;-67
2024/01/04 02:47:13;;;;;;;0.52;0.30;;;11.90;67.20;;;;;;5058411;28;20036;-65
2024/01/04 02:49:39;;;;;;;1.95;0.38;;;11.90;67.40;;;;;;5057524;28;20108;-65
2024/01/04 02:52:05;;;;;;;0.90;0.28;;;11.80;67.70;;;;;;5057697;28;20389;-66
2024/01/04 02:54:30;;;;;;;0.30;0.20;;;11.80;68.00;;;;;;5057230;28;20138;-66
2024/01/04 02:56:56;;;;;;;1.48;0.65;;;11.80;68.40;;;;;;5057902;28;20021;-66
2024/01/04 02:59:22;;;;;;;0.20;0.20;;;11.80;68.80;;;;;;5057162;28;20488;-66
2024/01/04 03:01:48;;;;;;;1.65;0.28;;;11.70;69.20;;;;;;5058436;28;20053;-66
2024/01/04 03:04:15;;;;;;;1.48;0.20;;;11.70;69.70;;;;;;5058214;28;20033;-66
2024/01/04 03:06:41;;;;;;;0.30;0.25;;;11.60;69.90;;;;;;5057858;28;20017;-66
2024/01/04 03:09:07;;;;;;;1.00;0.30;;;11.60;70.40;;;;;;5057569;28;20029;-65
2024/01/04 03:11:32;;;;;;;0.55;0.30;;;11.60;70.60;;;;;;5057347;28;20107;-65
2024/01/04 03:13:58;;;;;;;0.47;0.45;;;11.50;70.90;;;;;;5057921;28;20105;-66
2024/01/04 03:16:24;;;;;;;0.63;0.45;;;11.50;71.20;;;;;;5057127;28;20058;-66
2024/01/04 03:18:49;;;;;;;1.35;0.30;;;11.50;71.20;;;;;;5057836;28;20035;-66
2024/01/04 03:21:16;;;;;;;0.47;0.28;;;11.40;71.30;;;;;;5057679;28;20542;-66
2024/01/04 03:23:42;;;;;;;0.70;0.30;;;11.40;71.60;;;;;;5057595;28;20036;-66
2024/01/04 03:26:08;;;;;;;0.80;0.35;;;11.40;71.60;;;;;;5057638;28;20040;-66
2024/01/04 03:28:34;;;;;;;0.43;0.30;;;11.40;71.70;;;;;;5057383;28;20021;-66
2024/01/04 03:30:59;;;;;;;0.55;0.30;;;11.40;71.80;;;;;;5057467;28;20069;-66
2024/01/04 03:33:25;;;;;;;0.30;0.28;;;11.30;71.90;;;;;;5057081;28;20065;-66
2024/01/04 03:35:51;;;;;;;1.38;0.40;;;11.30;72.10;;;;;;5057655;28;20040;-66
2024/01/04 03:38:16;;;;;;;0.47;0.30;;;11.30;72.20;;;;;;5057620;28;20025;-66
2024/01/04 03:40:42;;;;;;;3.17;0.30;;;11.20;72.30;;;;;;5057387;28;20369;-66
2024/01/04 03:43:08;;;;;;;0.95;0.40;;;11.20;72.50;;;;;;5054097;28;20429;-66
2024/01/04 03:45:33;;;;;;;0.55;0.20;;;11.20;72.70;;;;;;5053738;28;20086;-66
2024/01/04 03:47:59;;;;;;;0.82;0.32;;;11.20;72.90;;;;;;5054237;28;20029;-66
2024/01/04 03:50:25;;;;;;;0.77;0.30;;;11.10;73.00;;;;;;5052875;28;20039;-66
2024/01/04 03:52:51;;;;;;;0.17;0.17;;;11.10;73.20;;;;;;5054020;28;20025;-66
2024/01/04 03:55:17;;;;;;;2.70;0.73;;;11.10;73.20;;;;;;5053049;28;20041;-65
2024/01/04 03:57:43;;;;;;;2.13;0.30;;;11.00;73.50;;;;;;5052528;28;20036;-66
2024/01/04 04:00:10;;;;;;;0.28;0.20;;;11.00;73.60;;;;;;5051332;28;20414;-66
2024/01/04 04:02:35;;;;;;;0.10;0.10;;;11.00;73.90;;;;;;5052320;28;20028;-66
2024/01/04 04:05:01;;;;;;;0.50;0.20;;;11.00;73.70;;;;;;5051076;28;20042;-66
2024/01/04 04:07:27;;;;;;;1.08;0.30;;;11.00;73.80;;;;;;5050858;28;20086;-67
2024/01/04 04:09:53;;;;;;;0.47;0.30;;;10.90;73.40;;;;;;5053033;28;20033;-66
2024/01/04 04:12:19;;;;;;;0.63;0.40;;;10.90;73.50;;;;;;5052956;28;20115;-66
2024/01/04 04:14:45;;;;;;;0.20;0.20;;;10.90;73.40;;;;;;5053017;28;20115;-67
2024/01/04 04:17:10;;;;;;;0.68;0.30;;;10.90;73.50;;;;;;5053425;28;20523;-67
2024/01/04 04:19:36;;;;;;;1.88;0.60;;;10.90;73.70;;;;;;5053165;28;20037;-67
2024/01/04 04:22:02;;;;;;;0.68;0.30;;;10.90;73.50;;;;;;5054201;28;20069;-66
2024/01/04 04:24:27;;;;;;;1.20;0.50;;;10.80;73.50;;;;;;5052531;28;20158;-67
2024/01/04 04:26:53;;;;;;;1.38;0.30;;;10.80;73.70;;;;;;5053226;28;20044;-67
2024/01/04 04:29:18;;;;;;;0.65;0.40;;;10.80;74.00;;;;;;5053219;28;20032;-67
2024/01/04 04:31:47;;;;;;;1.15;0.40;;;10.80;74.40;;;;;;5052817;28;20119;-66
2024/01/04 04:34:12;;;;;;;0.52;0.30;;;10.80;74.70;;;;;;5053364;28;20077;-66
2024/01/04 04:36:40;;;;;;;1.10;0.40;;;10.70;74.60;;;;;;5052464;28;20065;-66
2024/01/04 04:39:07;;;;;;;1.20;0.40;;;10.70;75.00;;;;;;5052789;28;20029;-66
2024/01/04 04:41:32;;;;;;;0.52;0.32;;;10.70;74.80;;;;;;5052926;28;20031;-66
2024/01/04 04:43:58;;;;;;;1.20;0.30;;;10.70;74.50;;;;;;5053995;28;20025;-66
2024/01/04 04:46:24;;;;;;;0.30;0.30;;;10.60;74.80;;;;;;5073743;28;20029;-65
2024/01/04 04:48:54;;;;;;;0.57;0.40;;;10.70;74.40;;;;;;5053007;28;20053;-66
2024/01/04 04:51:21;;;;;;;2.25;0.55;;;10.70;73.90;;;;;;5047966;28;20091;-66
2024/01/04 04:53:46;;;;;;;1.10;0.40;;;10.70;73.80;;;;;;5065195;28;20033;-67
2024/01/04 04:56:12;;;;;;;1.40;0.40;;;10.60;73.60;;;;;;5064240;28;20094;-67
2024/01/04 04:58:38;;;;;;;0.63;0.40;;;10.70;73.40;;;;;;5058025;28;20475;-66
2024/01/04 05:01:03;;;;;;;1.25;0.50;;;10.70;73.10;;;;;;5058518;28;20472;-66
2024/01/04 05:03:29;;;;;;;1.05;0.50;;;10.70;73.00;;;;;;5062217;28;20036;-66
2024/01/04 05:05:55;;;;;;;1.13;0.30;;;10.70;73.00;;;;;;5054686;28;20107;-66
2024/01/04 05:08:20;;;;;;;0.43;0.30;;;10.70;72.60;;;;;;5051631;28;20082;-66
2024/01/04 05:10:46;;;;;;;1.75;0.63;;;10.70;72.60;;;;;;5055386;28;20028;-66
2024/01/04 05:13:11;;;;;;;1.17;0.50;;;10.70;71.90;;;;;;5055861;28;20044;-66
2024/01/04 05:15:37;;;;;;;0.65;0.30;;;10.80;72.00;;;;;;5051648;28;20032;-65
2024/01/04 05:18:03;;;;;;;1.20;0.40;;;10.80;71.90;;;;;;5051902;28;20029;-66
2024/01/04 05:20:28;;;;;;;1.05;0.25;;;10.80;71.80;;;;;;5051172;28;20028;-67
2024/01/04 05:22:54;;;;;;;0.43;0.40;;;10.80;71.90;;;;;;5050903;28;20037;-66
2024/01/04 05:25:20;;;;;;;0.77;0.40;;;10.80;71.90;;;;;;5050322;28;20070;-67
2024/01/04 05:27:45;;;;;;;0.65;0.40;;;10.70;72.00;;;;;;5051342;28;20370;-67
2024/01/04 05:30:11;;;;;;;0.15;0.15;;;10.70;72.00;;;;;;5052074;28;20025;-66
2024/01/04 05:32:37;;;;;;;0.70;0.35;;;10.70;71.70;;;;;;5051599;28;20021;-66
2024/01/04 05:35:03;;;;;;;1.33;0.40;;;10.80;71.80;;;;;;5051475;28;20092;-66
2024/01/04 05:37:29;;;;;;;0.30;0.30;;;10.80;71.70;;;;;;5052069;28;20412;-67
2024/01/04 05:39:55;;;;;;;1.35;0.50;;;10.80;71.60;;;;;;5051729;28;20025;-65
2024/01/04 05:42:20;;;;;;;1.15;0.47;;;10.80;71.50;;;;;;5051911;28;20029;-67
2024/01/04 05:44:46;;;;;;;1.23;0.45;;;10.80;71.20;;;;;;5051739;28;20085;-66
2024/01/04 05:47:11;;;;;;;1.80;0.50;;;10.80;71.10;;;;;;5052113;28;20025;-66
2024/01/04 05:49:37;;;;;;;1.67;0.55;;;10.80;71.00;;;;;;5051258;28;20032;-66
2024/01/04 05:52:03;;;;;;;0.40;0.40;;;10.80;70.90;;;;;;5051576;28;20033;-66
2024/01/04 05:54:29;;;;;;;1.23;0.40;;;10.80;70.90;;;;;;5051213;28;20055;-66
2024/01/04 05:56:55;;;;;;;1.30;0.50;;;10.80;70.60;;;;;;5051283;28;20032;-65
2024/01/04 05:59:24;;;;;;;0.70;0.40;;;10.80;70.20;;;;;;5051410;28;20123;-65
2024/01/04 06:01:54;;;;;;;0.30;0.30;;;10.80;70.20;;;;;;5051245;28;20032;-65
2024/01/04 06:04:19;;;;;;;2.25;0.50;;;10.80;69.80;;;;;;5051114;28;20037;-66
2024/01/04 06:06:47;;;;;;;0.73;0.40;;;10.90;69.60;;;;;;5050641;28;20047;-66
2024/01/04 06:09:13;;;;;;;1.35;0.25;;;10.90;69.30;;;;;;5051817;28;20021;-67
2024/01/04 06:11:38;;;;;;;1.23;0.40;;;10.90;69.20;;;;;;5051307;28;20033;-65
2024/01/04 06:14:07;;;;;;;0.60;0.40;;;10.90;69.40;;;;;;5051748;28;20032;-66
2024/01/04 06:16:33;;;;;;;2.17;0.60;;;10.90;69.10;;;;;;5051205;28;20025;-68
2024/01/04 06:18:59;;;;;;;1.17;0.40;;;10.90;69.30;;;;;;5051710;28;20462;-67
2024/01/04 06:21:25;;;;;;;0.25;0.25;;;10.90;69.40;;;;;;5051570;28;20083;-66
2024/01/04 06:23:51;;;;;;;0.45;0.32;;;11.00;69.50;;;;;;5050860;28;20095;-67
2024/01/04 06:26:18;;;;;;;0.30;0.30;;;11.00;69.60;;;;;;5053650;28;20112;-67
2024/01/04 06:28:43;;;;;;;2.67;0.40;;;11.00;69.60;;;;;;5050796;28;20041;-67
2024/01/04 06:31:09;;;;;;;1.73;0.50;;;10.90;69.80;;;;;;5051011;28;20079;-67
2024/01/04 06:33:35;;;;;;;1.45;0.30;;;10.90;70.20;;;;;;5049619;28;20114;-69
2024/01/04 06:36:02;;;;;;;1.27;0.40;;;10.90;70.60;;;;;;5050563;28;20036;-67
2024/01/04 06:38:28;;;;;;;0.93;0.40;;;10.90;71.10;;;;;;5050827;28;20029;-67
2024/01/04 06:40:58;;;;;;;0.50;0.40;;;10.80;71.30;;;;;;5050167;28;20067;-67
2024/01/04 06:43:24;;;;;;;2.20;0.50;;;10.80;71.50;;;;;;5050591;28;20385;-67
2024/01/04 06:45:50;;;;;;;0.95;0.40;;;10.80;71.70;;;;;;5049947;28;20021;-67
2024/01/04 06:48:16;;;;;;;2.25;0.47;;;10.80;71.90;;;;;;5050090;28;20033;-67
2024/01/04 06:50:43;;;;;;;1.17;0.47;;;10.80;72.10;;;;;;5050317;28;20324;-70
2024/01/04 06:53:11;;;;;;;1.23;0.40;;;10.80;72.30;;;;;;5047842;28;20033;-67
2024/01/04 06:55:37;;;;;;;2.15;0.50;;;10.70;72.40;;;;;;5050618;28;20102;-68
2024/01/04 06:58:04;;;;;;;0.93;0.28;;;10.70;72.70;;;;;;5051366;28;20064;-67
2024/01/04 07:00:29;;;;;;;1.75;0.50;;;10.70;72.50;;;;;;5049700;28;20487;-68
2024/01/04 07:02:56;;;;;;;2.35;0.40;;;10.70;72.60;;;;;;5049819;28;20361;-67
2024/01/04 07:05:21;;;;;;;3.45;0.60;;;10.70;72.80;;;;;;5050476;28;20056;-67
2024/01/04 07:07:48;;;;;;;1.02;0.30;;;10.70;73.10;;;;;;5050218;28;20021;-67
2024/01/04 07:10:14;;;;;;;0.85;0.50;;;10.70;73.10;;;;;;5048304;28;20417;-67
2024/01/04 07:12:41;;;;;;;0.40;0.30;;;10.70;73.10;;;;;;5050222;28;20024;-68
2024/01/04 07:15:06;;;;;;;3.35;0.50;;;10.70;73.20;;;;;;5050595;28;20023;-67
2024/01/04 07:17:32;;;;;;;3.20;0.57;;;10.70;73.20;;;;;;5053264;28;20017;-68
2024/01/04 07:19:58;;;;;;;0.85;0.30;;;10.60;73.20;;;;;;5053487;28;20025;-68
2024/01/04 07:22:23;;;;;;;0.63;0.40;;;10.70;73.20;;;;;;5054290;28;20358;-67
2024/01/04 07:24:49;;;;;;;0.95;0.47;;;10.70;72.70;;;;;;5053622;28;20508;-66
2024/01/04 07:27:15;;;;;;;1.33;0.45;;;10.70;72.60;;;;;;5057404;28;20501;-66
2024/01/04 07:29:40;;;;;;;1.85;0.43;;;10.70;72.70;;;;;;5061084;28;20029;-66
2024/01/04 07:32:06;;;;;;;1.75;0.70;;;10.70;72.60;;;;;;5060742;28;20047;-65
2024/01/04 07:34:33;;;;;;;0.60;0.40;;;10.70;72.50;;;;;;5060213;28;20044;-66
2024/01/04 07:36:59;;;;;;;0.43;0.30;;;10.70;72.50;;;;;;5059885;28;20062;-67
2024/01/04 07:39:26;;;;;;;1.13;0.80;;;10.70;72.70;;;;;;5059927;28;20412;-66
2024/01/04 07:41:51;;;;;;;1.77;0.82;;;10.80;72.70;;;;;;5062267;28;20090;-67
2024/01/04 07:44:17;;;;;;;1.45;0.40;;;10.80;72.80;;;;;;5059782;28;20021;-66
2024/01/04 07:46:43;;;;;;;1.92;1.05;;;10.80;72.60;;;;;;5060147;28;20027;-66
2024/01/04 07:49:08;;;;;;;0.73;0.30;;;10.80;72.40;;;;;;5060872;28;20024;-66
2024/01/04 07:51:34;;;;;;;1.73;0.40;;;10.90;72.50;;;;;;5060858;28;20024;-66
2024/01/04 07:54:00;;;;;;;1.27;0.47;;;10.90;72.60;;;;;;5058174;28;20091;-67
2024/01/04 07:56:26;;;;;;;0.82;0.32;;;10.90;72.60;;;;;;5057321;28;20059;-67
2024/01/04 07:58:53;;;;;;;3.60;0.80;;;11.00;72.50;;;;;;5060969;28;20147;-67
2024/01/04 08:01:18;;;;;;;1.60;0.57;;;11.00;72.40;;;;;;5054506;28;20035;-67
2024/01/04 08:03:44;;;;;;;2.22;0.52;;;11.00;72.30;;;;;;5052879;28;20033;-67
2024/01/04 08:06:09;;;;;;;3.63;0.55;;;11.00;72.20;;;;;;5054817;28;20040;-66
2024/01/04 08:08:35;;;;;;;2.03;0.55;;;11.10;72.10;;;;;;5068493;28;20086;-66
2024/01/04 08:11:02;;;;;;;4.13;0.50;;;11.10;72.30;;;;;;5066393;28;20115;-66
2024/01/04 08:13:28;;;;;;;2.85;0.60;;;11.10;72.00;;;;;;5070449;28;20183;-66
2024/01/04 08:15:54;;;;;;;1.02;0.50;;;11.10;71.90;;;;;;5067663;28;20480;-65
2024/01/04 08:18:22;;;;;;;0.52;0.38;;;11.10;71.80;;;;;;5066991;28;20028;-67
2024/01/04 08:20:48;;;;;;;2.42;0.50;;;11.20;71.80;;;;;;5065799;28;20062;-67
2024/01/04 08:23:14;;;;;;;2.00;0.47;;;11.10;71.50;;;;;;5068241;28;20058;-67
2024/01/04 08:25:41;;;;;;;1.95;0.60;;;11.20;71.80;;;;;;5061458;28;20033;-67
2024/01/04 08:28:08;;;;;;;0.80;0.57;;;11.20;71.80;;;;;;5052640;28;20025;-67
2024/01/04 08:30:34;;;;;;;2.83;0.52;;;11.20;71.80;;;;;;5053374;28;20032;-65
2024/01/04 08:33:00;;;;;;;0.28;0.28;;;11.20;71.60;;;;;;5052697;28;20389;-66
2024/01/04 08:35:25;;;;;;;1.20;0.45;;;11.30;71.20;;;;;;5052763;28;20035;-66
2024/01/04 08:37:51;;;;;;;2.20;0.40;;;11.30;70.90;;;;;;5053344;28;20036;-66
2024/01/04 08:40:17;;;;;;;2.70;0.60;;;11.30;71.10;;;;;;5053037;28;20430;-66
2024/01/04 08:42:42;;;;;;;1.83;0.50;;;11.30;70.50;;;;;;5051774;28;20091;-68
2024/01/04 08:45:11;;;;;;;0.77;0.40;;;11.30;70.50;;;;;;5052401;28;20033;-66
2024/01/04 08:47:37;;;;;;;3.95;0.60;;;11.40;70.60;;;;;;5052711;28;20078;-66
2024/01/04 08:50:04;;;;;;;1.52;0.68;;;11.40;71.00;;;;;;5052048;28;20041;-66
2024/01/04 08:52:29;;;;;;;1.30;0.50;;;11.40;71.20;;;;;;5052324;28;20040;-66
2024/01/04 08:54:55;;;;;;;1.08;0.40;;;11.30;71.70;;;;;;5052583;28;20025;-66
2024/01/04 08:57:21;;;;;;;1.52;0.40;;;11.30;72.20;;;;;;5052763;28;20029;-66
2024/01/04 08:59:47;;;;;;;2.47;0.50;;;11.30;72.50;;;;;;5051928;28;20218;-68
2024/01/04 09:02:13;;;;;;;0.85;0.43;;;11.30;73.00;;;;;;5052405;28;20040;-66
2024/01/04 09:04:39;;;;;;;0.40;0.40;;;11.30;72.90;;;;;;5052734;28;20108;-67
2024/01/04 09:07:05;;;;;;;0.88;0.32;;;11.20;73.30;;;;;;5052210;28;20128;-67
2024/01/04 09:09:31;;;;;;;2.22;0.68;;;11.20;73.80;;;;;;5052552;28;20074;-66
2024/01/04 09:11:56;;;;;;;1.08;0.50;;;11.20;74.50;;;;;;5052356;28;20029;-66
2024/01/04 09:14:22;;;;;;;0.82;0.38;;;11.20;74.50;;;;;;5052564;28;20031;-67
2024/01/04 09:16:48;;;;;;;2.78;0.50;;;11.20;74.60;;;;;;5052299;28;20028;-67
2024/01/04 09:19:18;;;;;;;1.95;0.50;;;11.10;74.70;;;;;;5052455;28;20029;-67
2024/01/04 09:21:45;;;;;;;1.65;0.35;;;11.10;75.20;;;;;;5052427;28;20029;-67
2024/01/04 09:24:12;;;;;;;0.22;0.17;;;11.20;74.90;;;;;;5052415;28;20130;-67
2024/01/04 09:26:42;;;;;;;0.85;0.40;;;11.10;74.70;;;;;;5052338;28;20043;-66
2024/01/04 09:29:08;;;;;;;0.35;0.22;;;11.10;74.60;;;;;;5051663;28;20028;-66
2024/01/04 09:31:34;;;;;;;0.73;0.40;;;11.10;75.00;;;;;;5051988;28;20033;-67
2024/01/04 09:34:00;;;;;;;2.90;0.40;;;11.10;74.50;;;;;;5051580;28;20484;-66
2024/01/04 09:36:26;;;;;;;1.85;0.35;;;11.10;75.00;;;;;;5051944;28;20096;-67
2024/01/04 09:38:51;;;;;;;1.95;0.30;;;11.10;74.90;;;;;;5051511;28;20124;-66
2024/01/04 09:41:25;;;;;;;3.53;0.60;;;11.20;74.50;;;;;;5052201;28;20039;-66
2024/01/04 09:43:57;;;;;;;0.70;0.40;;;11.10;74.90;;;;;;5051392;28;20112;-66
2024/01/04 09:46:26;;;;;;;1.88;1.00;;;11.20;75.20;;;;;;5052172;28;20025;-67
2024/01/04 09:49:01;;;;;;;0.50;0.30;;;11.20;75.50;;;;;;5051768;28;20032;-67
2024/01/04 09:51:34;;;;;;;0.77;0.45;;;11.10;76.10;;;;;;5051736;28;20064;-68
2024/01/04 09:54:04;;;;;;;1.52;0.50;;;11.10;76.00;;;;;;5051433;28;20029;-66
2024/01/04 09:56:32;;;;;;;1.15;0.45;;;11.10;76.30;;;;;;5051745;28;20085;-67
2024/01/04 09:58:58;;;;;;;2.67;0.50;;;11.10;76.70;;;;;;5051278;28;20111;-66
2024/01/04 10:01:31;;;;;;;1.17;0.50;;;11.00;76.90;;;;;;5051589;28;20064;-67
2024/01/04 10:04:00;;;;;;;0.50;0.50;;;11.00;77.40;;;;;;5051268;28;20044;-66
2024/01/04 10:06:35;;;;;;;2.45;0.63;;;11.00;77.70;;;;;;5051850;28;20033;-66
2024/01/04 10:09:08;;;;;;;1.75;0.63;;;11.00;78.10;;;;;;5051326;28;20021;-65
2024/01/04 10:11:42;;;;;;;1.88;0.50;;;11.00;78.20;;;;;;5051403;28;20033;-65
2024/01/04 10:14:09;;;;;;;0.40;0.40;;;11.00;78.00;;;;;;5063868;28;20241;-66
2024/01/04 10:16:35;;;;;;;0.50;0.32;;;10.90;78.40;;;;;;5071601;28;20024;-65
2024/01/04 10:19:03;;;;;;;1.02;0.40;;;11.00;78.30;;;;;;5070921;28;20465;-66
2024/01/04 10:21:33;;;;;;;1.20;0.57;;;11.00;78.00;;;;;;5071481;28;20509;-66
2024/01/04 10:24:02;;;;;;;0.63;0.40;;;11.20;77.70;;;;;;5071225;28;20053;-66
2024/01/04 10:26:28;;;;;;;1.90;0.40;;;11.30;77.30;;;;;;5071765;28;20103;-67
2024/01/04 10:28:59;;;;;;;2.80;0.40;;;11.40;76.50;;;;;;5070940;28;20499;-66
2024/01/04 10:31:27;;;;;;;0.40;0.40;;;11.50;76.10;;;;;;5071306;28;20027;-66
2024/01/04 10:34:00;;;;;;;0.25;0.25;;;11.60;75.50;;;;;;5070966;28;20040;-66
2024/01/04 10:36:29;;;;;;;3.90;0.60;;;11.70;75.20;;;;;;5071354;28;20029;-66
2024/01/04 10:39:01;;;;;;;0.90;0.35;;;11.70;74.60;;;;;;5071016;28;20032;-66
2024/01/04 10:41:28;;;;;;;;;;;11.80;74.40;;;;;;5071314;28;20473;-66
2024/01/04 10:44:07;;;;;;;0.40;0.40;;;11.80;74.10;;;;;;5050310;28;19999;-67
2024/01/04 10:46:36;;;;;;;0.73;0.32;;;11.90;74.00;;;;;;5051191;28;20359;-66
2024/01/04 10:49:03;;;;;;;0.70;0.40;;;11.90;73.40;;;;;;5050673;28;20032;-66
2024/01/04 10:51:32;;;;;;;6.43;0.50;;;11.90;73.40;;;;;;5052840;28;20021;-66
2024/01/04 10:54:02;;;;;;;0.95;0.50;;;11.90;73.40;;;;;;5055169;28;20422;-66
2024/01/04 10:56:32;;;;;;;1.42;0.40;;;11.90;73.80;;;;;;5055225;28;20092;-68
2024/01/04 10:58:59;;;;;;;1.70;0.50;;;12.00;74.00;;;;;;5054816;28;20060;-67
2024/01/04 11:01:25;;;;;;;0.50;0.40;;;12.00;74.00;;;;;;5055357;28;20033;-66
2024/01/04 11:03:55;;;;;;;3.00;0.68;;;12.00;74.00;;;;;;5055163;28;20079;-66
2024/01/04 11:06:23;;;;;;;1.50;0.50;;;12.00;74.50;;;;;;5055380;28;20033;-66
2024/01/04 11:08:49;;;;;;;2.40;0.50;;;11.90;74.30;;;;;;5055059;28;20032;-66
2024/01/04 11:11:18;;;;;;;0.82;0.50;;;12.00;74.50;;;;;;5054705;28;20029;-66
2024/01/04 11:13:44;;;;;;;1.13;0.45;;;12.00;74.30;;;;;;5054918;28;20041;-66
2024/01/04 11:16:38;;;;;;;0.77;0.40;;;11.90;75.30;;;;;;5054725;28;20033;-66
2024/01/04 11:19:22;;;;;;;1.13;0.38;;;11.90;74.60;;;;;;5049973;28;20033;-66
2024/01/04 11:22:21;;;;;;;1.17;0.50;;;11.90;74.90;;;;;;5054937;28;20043;-66
2024/01/04 11:25:25;;;;;;;1.83;0.52;;;11.80;75.20;;;;;;5054866;28;20029;-66
2024/01/04 11:27:51;;;;;;;0.85;0.40;;;11.80;75.30;;;;;;5055218;28;20036;-66
2024/01/04 11:30:17;;;;;;;1.92;0.45;;;11.80;75.60;;;;;;5054104;28;20447;-66
2024/01/04 11:32:45;;;;;;;2.92;0.50;;;11.70;75.40;;;;;;5054729;28;20029;-66
2024/01/04 11:35:12;;;;;;;0.82;0.55;;;11.80;75.50;;;;;;5054226;28;20059;-65
2024/01/04 11:37:37;;;;;;;0.50;0.40;;;11.80;75.20;;;;;;5054805;28;20464;-66
2024/01/04 11:40:07;;;;;;;0.65;0.52;;;11.70;75.50;;;;;;5054418;28;20179;-67
2024/01/04 11:42:37;;;;;;;0.80;0.52;;;11.70;75.40;;;;;;5054294;28;20592;-65
2024/01/04 11:45:04;;;;;;;3.42;0.57;;;11.70;75.80;;;;;;5054181;28;20024;-66
2024/01/04 11:47:44;;;;;;;1.13;0.60;;;11.60;76.10;;;;;;5054411;28;20028;-66
2024/01/04 11:50:25;;;;;;;2.13;0.50;;;11.60;76.20;;;;;;5053815;28;20029;-66
2024/01/04 11:53:05;;;;;;;0.60;0.50;;;11.60;76.20;;;;;;5054493;28;20032;-66
2024/01/04 11:55:30;;;;;;;3.92;0.50;;;11.60;76.20;;;;;;5054518;28;20025;-66
2024/01/04 11:58:08;;;;;;;0.90;0.50;;;11.60;75.80;;;;;;5054125;28;20407;-67
2024/01/04 12:00:46;;;;;;;1.17;0.50;;;11.70;75.80;;;;;;5054402;28;20059;-65
2024/01/04 12:03:13;;;;;;;1.13;0.40;;;11.70;75.60;;;;;;5052178;28;20079;-66
2024/01/04 12:05:51;;;;;;;0.47;0.40;;;11.70;75.20;;;;;;5054249;28;20450;-68
2024/01/04 12:08:43;;;;;;;0.60;0.47;;;11.70;74.70;;;;;;5053804;28;20033;-67
2024/01/04 12:11:09;;;;;;;1.60;0.40;;;11.70;74.80;;;;;;5051300;28;20041;-66
2024/01/04 12:13:34;;;;;;;0.82;0.50;;;11.70;74.90;;;;;;5053891;28;20044;-66
2024/01/04 12:16:03;;;;;;;0.95;0.40;;;11.70;74.30;;;;;;5053583;28;20385;-66
2024/01/04 12:18:31;;;;;;;0.95;0.60;;;11.70;74.10;;;;;;5053817;28;20124;-66
2024/01/04 12:20:59;;;;;;;1.52;0.55;;;11.70;73.80;;;;;;5067455;28;20491;-66
2024/01/04 12:23:25;;;;;;;0.98;0.60;;;11.70;73.60;;;;;;5073852;28;20154;-67
2024/01/04 12:25:51;;;;;;;1.45;0.70;;;11.80;74.00;;;;;;5073903;28;20461;-67
2024/01/04 12:28:17;;;;;;;2.20;0.50;;;11.80;73.60;;;;;;5073175;28;20024;-66
2024/01/04 12:30:43;;;;;;;0.88;0.40;;;11.80;73.20;;;;;;5073721;28;20032;-66
2024/01/04 12:33:09;;;;;;;0.90;0.40;;;11.80;73.50;;;;;;5073369;28;20043;-66
2024/01/04 12:35:35;;;;;;;1.55;0.50;;;11.90;73.80;;;;;;5073723;28;20449;-66
2024/01/04 12:38:05;;;;;;;1.45;0.40;;;11.90;73.50;;;;;;5073123;28;20024;-67
2024/01/04 12:40:45;;;;;;;2.25;0.70;;;12.00;73.60;;;;;;5073598;28;20020;-67
2024/01/04 12:43:15;;;;;;;1.83;0.65;;;12.00;73.40;;;;;;5073104;28;20369;-66
2024/01/04 12:45:41;;;;;;;1.58;0.60;;;12.00;73.40;;;;;;5068773;28;20058;-66
2024/01/04 12:48:07;;;;;;;1.50;0.60;;;12.00;73.10;;;;;;5053133;28;20377;-66